Time;durP1;ratioP1;P1;durP2;ratioP2;P2;SDS_P1;SDS_P2;PMS_P1;PMS_P2;Temp;Humidity;BMP_temperature;BMP_pressure;BME280_temperature;BME280_humidity;BME280_pressure;Samples;Min_cycle;Max_cycle;Signal;HPM_P1;HPM_P2
2022/03/31 00:01:20;;;;;;;18.97;8.30;;;5.20;99.90;;;;;;5112983;28;20606;-62
2022/03/31 00:03:47;;;;;;;12.73;7.53;;;5.20;99.90;;;;;;5112831;28;20456;-61
2022/03/31 00:06:13;;;;;;;15.87;7.87;;;5.20;99.90;;;;;;5112523;28;20858;-62
2022/03/31 00:08:40;;;;;;;16.90;9.13;;;5.10;99.90;;;;;;5112510;28;20441;-62
2022/03/31 00:11:06;;;;;;;13.93;7.83;;;5.20;99.90;;;;;;5112669;28;20495;-63
2022/03/31 00:13:34;;;;;;;13.13;7.57;;;5.10;99.90;;;;;;5112742;28;20449;-62
2022/03/31 00:16:00;;;;;;;14.50;8.27;;;5.10;99.90;;;;;;5111999;28;20480;-63
2022/03/31 00:18:31;;;;;;;11.13;6.97;;;5.10;99.90;;;;;;5112780;28;20257;-62
2022/03/31 00:20:57;;;;;;;15.20;9.27;;;5.00;99.90;;;;;;5112724;28;20445;-62
2022/03/31 00:23:24;;;;;;;14.50;7.93;;;5.00;99.90;;;;;;5112732;28;20442;-62
2022/03/31 00:25:51;;;;;;;18.00;8.03;;;5.00;99.90;;;;;;5112047;28;21040;-62
2022/03/31 00:28:17;;;;;;;14.67;8.67;;;5.00;99.90;;;;;;5112316;28;20461;-62
2022/03/31 00:30:44;;;;;;;14.07;8.83;;;4.90;1.00;;;;;;5112723;28;20449;-63
2022/03/31 00:33:11;;;;;;;13.50;8.10;;;5.00;1.00;;;;;;5112303;28;20495;-63
2022/03/31 00:35:39;;;;;;;14.80;8.23;;;5.00;1.00;;;;;;5112407;28;20469;-63
2022/03/31 00:38:06;;;;;;;13.30;7.90;;;5.00;1.00;;;;;;5112075;28;20950;-62
2022/03/31 00:40:33;;;;;;;15.43;9.10;;;4.90;1.00;;;;;;5112600;28;20452;-61
2022/03/31 00:43:00;;;;;;;13.47;8.70;;;4.90;1.00;;;;;;5112168;28;20844;-62
2022/03/31 00:45:28;;;;;;;12.30;8.93;;;4.90;1.00;;;;;;5112167;28;20452;-61
2022/03/31 00:47:56;;;;;;;13.17;8.67;;;4.90;1.00;;;;;;5111621;28;20445;-62
2022/03/31 00:50:23;;;;;;;17.33;9.30;;;4.90;1.00;;;;;;5111988;28;20794;-62
2022/03/31 00:52:51;;;;;;;16.77;8.97;;;4.90;1.00;;;;;;5112442;28;20450;-63
2022/03/31 00:55:19;;;;;;;15.53;9.10;;;4.90;1.00;;;;;;5111956;28;20445;-62
2022/03/31 00:57:47;;;;;;;17.80;9.13;;;4.90;1.00;;;;;;5112314;28;20532;-62
2022/03/31 01:00:15;;;;;;;14.73;8.57;;;4.90;1.00;;;;;;5112237;28;20445;-63
2022/03/31 01:02:44;;;;;;;14.23;8.63;;;4.90;1.00;;;;;;5112354;28;20536;-62
2022/03/31 01:05:11;;;;;;;20.47;9.53;;;4.90;43.90;;;;;;5112165;28;20532;-62
2022/03/31 01:07:39;;;;;;;12.10;7.90;;;4.90;1.00;;;;;;5111656;28;20530;-63
2022/03/31 01:10:10;;;;;;;15.50;9.53;;;4.80;1.00;;;;;;5111789;28;20450;-62
2022/03/31 01:12:37;;;;;;;15.03;8.80;;;4.80;1.00;;;;;;5112153;28;20809;-62
2022/03/31 01:15:06;;;;;;;14.13;9.33;;;4.80;1.00;;;;;;5111808;28;20449;-63
2022/03/31 01:17:33;;;;;;;14.57;8.40;;;4.80;11.60;;;;;;5111806;28;20463;-63
2022/03/31 01:19:59;;;;;;;15.80;9.57;;;4.90;1.00;;;;;;5111902;28;20490;-62
2022/03/31 01:22:30;;;;;;;18.87;9.37;;;4.90;54.00;;;;;;5111850;28;20449;-62
2022/03/31 01:24:58;;;;;;;17.00;9.47;;;4.90;99.90;;;;;;5111779;28;21141;-62
2022/03/31 01:27:25;;;;;;;16.20;9.93;;;4.80;99.90;;;;;;5111327;28;20489;-62
2022/03/31 01:29:52;;;;;;;14.83;9.10;;;4.80;99.90;;;;;;5111867;28;20450;-61
2022/03/31 01:32:18;;;;;;;19.00;10.07;;;4.80;99.90;;;;;;5111763;28;20453;-62
2022/03/31 01:34:45;;;;;;;16.63;10.23;;;4.70;99.90;;;;;;5111708;28;20935;-62
2022/03/31 01:37:13;;;;;;;17.40;10.70;;;4.70;1.00;;;;;;5111088;28;20531;-62
2022/03/31 01:39:39;;;;;;;16.47;9.47;;;4.70;1.00;;;;;;5111626;28;20528;-62
2022/03/31 01:42:08;;;;;;;14.63;9.57;;;4.70;13.10;;;;;;5111636;28;20497;-62
2022/03/31 01:44:35;;;;;;;17.30;10.43;;;4.70;90.10;;;;;;5111724;28;20484;-62
2022/03/31 01:47:02;;;;;;;14.20;10.00;;;4.70;99.90;;;;;;5111341;28;20477;-62
2022/03/31 01:49:29;;;;;;;17.73;10.27;;;4.70;99.90;;;;;;5111333;28;20506;-62
2022/03/31 01:51:55;;;;;;;16.97;10.37;;;4.70;99.90;;;;;;5111764;28;20523;-62
2022/03/31 01:54:22;;;;;;;15.57;10.30;;;4.70;34.30;;;;;;5111560;28;20449;-63
2022/03/31 01:56:49;;;;;;;14.70;9.20;;;4.80;1.00;;;;;;5111405;28;20556;-62
2022/03/31 01:59:17;;;;;;;16.03;10.43;;;4.80;1.00;;;;;;5111373;28;20529;-63
2022/03/31 02:01:43;;;;;;;23.13;10.60;;;4.80;1.00;;;;;;5113792;28;20931;-62
2022/03/31 02:04:10;;;;;;;18.03;9.90;;;4.80;1.00;;;;;;5114850;28;20450;-62
2022/03/31 02:06:37;;;;;;;15.83;9.30;;;4.80;1.00;;;;;;5114835;28;20542;-61
2022/03/31 02:09:04;;;;;;;16.33;10.47;;;4.80;56.90;;;;;;5115177;28;20795;-62
2022/03/31 02:11:32;;;;;;;16.20;10.03;;;4.90;40.90;;;;;;5114924;28;20445;-62
2022/03/31 02:13:59;;;;;;;16.57;10.27;;;4.90;99.90;;;;;;5114986;28;20445;-62
2022/03/31 02:16:27;;;;;;;14.00;9.63;;;4.90;99.90;;;;;;5114403;28;20467;-63
2022/03/31 02:18:54;;;;;;;18.17;10.27;;;4.90;99.90;;;;;;5114682;28;20449;-63
2022/03/31 02:21:20;;;;;;;20.43;10.97;;;4.80;99.90;;;;;;5114496;28;20802;-62
2022/03/31 02:23:48;;;;;;;17.83;10.90;;;4.90;99.90;;;;;;5114851;28;20449;-62
2022/03/31 02:26:14;;;;;;;19.13;10.90;;;4.90;99.90;;;;;;5113844;28;21064;-63
2022/03/31 02:28:41;;;;;;;18.13;11.93;;;4.90;1.00;;;;;;5115353;28;20457;-63
2022/03/31 02:31:08;;;;;;;18.23;11.00;;;4.80;1.00;;;;;;5114893;28;20441;-62
2022/03/31 02:33:36;;;;;;;17.00;11.00;;;4.70;99.90;;;;;;5114197;28;20811;-62
2022/03/31 02:36:04;;;;;;;15.00;9.07;;;4.80;99.90;;;;;;5114543;28;20470;-62
2022/03/31 02:38:31;;;;;;;18.13;11.23;;;4.80;99.90;;;;;;5114429;28;20959;-62
2022/03/31 02:40:58;;;;;;;20.13;11.83;;;4.80;99.90;;;;;;5114525;28;20453;-62
2022/03/31 02:43:24;;;;;;;19.67;10.10;;;4.90;56.30;;;;;;5114044;28;20446;-63
2022/03/31 02:45:51;;;;;;;18.83;11.40;;;4.80;1.00;;;;;;5114377;28;20469;-62
2022/03/31 02:48:18;;;;;;;18.87;10.97;;;4.70;20.50;;;;;;5114232;28;20484;-61
2022/03/31 02:50:46;;;;;;;18.60;11.37;;;4.80;77.10;;;;;;5114601;28;20441;-62
2022/03/31 02:55:56;;;;;;;19.37;10.60;;;4.80;99.90;;;;;;5113751;28;20582;-62
2022/03/31 02:58:23;;;;;;;16.67;11.10;;;4.80;99.90;;;;;;5113882;28;20441;-62
2022/03/31 03:00:51;;;;;;;16.40;11.07;;;4.70;1.00;;;;;;5114095;28;20446;-62
2022/03/31 03:03:19;;;;;;;19.80;11.20;;;4.80;1.00;;;;;;5114184;28;20540;-62
2022/03/31 03:05:47;;;;;;;17.07;11.37;;;4.90;99.90;;;;;;5113756;28;20477;-63
2022/03/31 03:08:14;;;;;;;20.50;11.40;;;4.80;1.00;;;;;;5113527;28;20481;-62
2022/03/31 03:10:41;;;;;;;19.63;10.23;;;4.70;99.90;;;;;;5113772;28;20539;-61
2022/03/31 03:13:08;;;;;;;21.67;10.47;;;4.80;1.00;;;;;;5113596;28;20502;-61
2022/03/31 03:15:36;;;;;;;21.10;11.13;;;4.70;48.00;;;;;;5113720;28;20481;-62
2022/03/31 03:18:02;;;;;;;19.47;10.90;;;4.70;99.90;;;;;;5113632;28;20445;-62
2022/03/31 03:20:29;;;;;;;20.47;11.70;;;4.70;99.90;;;;;;5113684;28;20453;-63
2022/03/31 03:22:57;;;;;;;17.10;10.50;;;4.80;99.90;;;;;;5113468;28;20449;-62
2022/03/31 03:25:24;;;;;;;23.53;12.13;;;4.80;1.00;;;;;;5113424;28;20452;-63
2022/03/31 03:27:51;;;;;;;20.57;11.20;;;4.80;99.90;;;;;;5112842;28;20870;-62
2022/03/31 03:30:20;;;;;;;18.03;11.27;;;4.80;99.90;;;;;;5113918;28;20479;-62
2022/03/31 03:32:47;;;;;;;19.17;12.60;;;4.70;46.30;;;;;;5113355;28;20449;-61
2022/03/31 03:35:15;;;;;;;21.63;12.07;;;4.70;99.90;;;;;;5113559;28;20974;-62
2022/03/31 03:37:44;;;;;;;17.73;11.87;;;4.70;99.90;;;;;;5113080;28;20521;-62
2022/03/31 03:40:14;;;;;;;19.30;12.13;;;4.70;99.90;;;;;;5113322;28;20455;-62
2022/03/31 03:42:42;;;;;;;21.20;12.67;;;4.70;99.90;;;;;;5113335;28;20433;-62
2022/03/31 03:45:10;;;;;;;23.93;12.10;;;4.60;1.00;;;;;;5113221;28;20850;-62
2022/03/31 03:47:36;;;;;;;18.43;11.13;;;4.60;1.00;;;;;;5113169;28;20485;-62
2022/03/31 03:50:04;;;;;;;19.13;10.60;;;4.60;1.00;;;;;;5113029;28;20449;-62
2022/03/31 03:52:31;;;;;;;19.30;11.17;;;4.50;1.00;;;;;;5113359;28;20448;-62
2022/03/31 03:54:58;;;;;;;18.07;11.73;;;4.60;1.00;;;;;;5113269;28;20647;-62
2022/03/31 03:57:26;;;;;;;23.00;12.73;;;4.50;1.00;;;;;;5112581;28;20544;-63
2022/03/31 03:59:52;;;;;;;22.30;10.60;;;4.50;1.00;;;;;;5112897;28;20442;-64
2022/03/31 04:02:20;;;;;;;18.90;10.10;;;4.60;2.00;;;;;;5112947;28;20457;-62
2022/03/31 04:04:47;;;;;;;16.87;10.73;;;4.50;7.00;;;;;;5112878;28;20452;-62
2022/03/31 04:07:13;;;;;;;20.37;10.17;;;4.50;25.90;;;;;;5112653;28;20542;-61
2022/03/31 04:09:40;;;;;;;20.23;11.73;;;4.50;44.20;;;;;;5113216;28;20445;-60
2022/03/31 04:12:07;;;;;;;21.17;11.37;;;4.60;55.90;;;;;;5112718;28;20457;-62
2022/03/31 04:14:35;;;;;;;18.00;10.77;;;4.60;61.40;;;;;;5112834;28;20442;-62
2022/03/31 04:17:02;;;;;;;19.17;10.60;;;4.50;66.60;;;;;;5112128;28;20541;-62
2022/03/31 04:19:28;;;;;;;18.23;10.70;;;4.50;77.60;;;;;;5112537;28;20445;-61
2022/03/31 04:21:55;;;;;;;21.67;10.60;;;4.50;86.30;;;;;;5112146;28;20498;-62
2022/03/31 04:24:22;;;;;;;20.83;10.47;;;4.50;91.70;;;;;;5112332;28;20430;-61
2022/03/31 04:26:49;;;;;;;22.00;10.33;;;4.50;94.10;;;;;;5111752;28;20995;-62
2022/03/31 04:29:16;;;;;;;19.13;10.37;;;4.60;98.10;;;;;;5112243;28;20930;-62
2022/03/31 04:31:44;;;;;;;15.83;10.07;;;4.60;99.80;;;;;;5112521;28;20866;-62
2022/03/31 04:34:12;;;;;;;22.80;10.33;;;4.60;99.90;;;;;;5111970;28;20507;-61
2022/03/31 04:36:38;;;;;;;24.47;12.07;;;4.60;99.90;;;;;;5112374;28;20530;-61
2022/03/31 04:39:05;;;;;;;15.90;10.73;;;4.60;99.90;;;;;;5112004;28;20927;-61
2022/03/31 04:41:32;;;;;;;17.97;9.40;;;4.60;99.90;;;;;;5112598;28;20503;-61
2022/03/31 04:43:59;;;;;;;19.20;10.13;;;4.70;99.90;;;;;;5112665;28;20871;-61
2022/03/31 04:46:26;;;;;;;22.63;12.10;;;4.60;99.90;;;;;;5112851;28;20465;-60
2022/03/31 04:48:54;;;;;;;19.90;10.27;;;4.60;99.60;;;;;;5113006;28;20485;-59
2022/03/31 04:51:20;;;;;;;20.83;10.43;;;4.50;98.50;;;;;;5111585;28;20530;-61
2022/03/31 04:53:47;;;;;;;20.47;10.77;;;4.50;99.80;;;;;;5112055;28;20536;-61
2022/03/31 04:56:16;;;;;;;16.77;9.57;;;4.50;99.90;;;;;;5111463;28;20473;-61
2022/03/31 04:58:42;;;;;;;17.87;10.00;;;4.50;99.90;;;;;;5112209;28;20437;-61
2022/03/31 05:01:10;;;;;;;22.00;11.37;;;4.50;99.90;;;;;;5112199;28;20457;-61
2022/03/31 05:03:37;;;;;;;19.90;10.30;;;4.50;99.90;;;;;;5112702;28;20464;-61
2022/03/31 05:06:06;;;;;;;22.23;11.10;;;4.50;99.90;;;;;;5111455;28;20517;-61
2022/03/31 05:08:33;;;;;;;19.57;10.73;;;4.50;99.90;;;;;;5112154;28;20492;-61
2022/03/31 05:11:00;;;;;;;19.07;10.20;;;4.50;99.90;;;;;;5112284;28;20453;-61
2022/03/31 05:13:27;;;;;;;19.83;11.00;;;4.50;99.90;;;;;;5111959;28;20454;-62
2022/03/31 05:15:54;;;;;;;22.57;10.53;;;4.50;99.90;;;;;;5112565;28;20469;-62
2022/03/31 05:18:20;;;;;;;19.47;11.30;;;4.50;99.90;;;;;;5112270;28;20565;-62
2022/03/31 05:20:47;;;;;;;21.37;10.70;;;4.50;99.90;;;;;;5112167;28;20441;-62
2022/03/31 05:23:15;;;;;;;19.77;10.53;;;4.50;99.90;;;;;;5112241;28;20461;-64
2022/03/31 05:25:42;;;;;;;21.40;10.30;;;4.60;99.90;;;;;;5112205;28;20469;-62
2022/03/31 05:28:09;;;;;;;22.53;11.43;;;4.50;99.90;;;;;;5111633;28;20520;-62
2022/03/31 05:30:36;;;;;;;19.93;11.17;;;4.50;99.90;;;;;;5111242;28;20449;-60
2022/03/31 05:33:03;;;;;;;20.83;12.03;;;4.50;99.90;;;;;;5111738;28;20457;-62
2022/03/31 05:35:29;;;;;;;22.40;11.17;;;4.50;99.90;;;;;;5111892;28;20526;-62
2022/03/31 05:37:56;;;;;;;21.10;11.40;;;4.60;99.90;;;;;;5113045;28;20494;-63
2022/03/31 05:40:24;;;;;;;26.13;12.73;;;4.60;99.40;;;;;;5111214;28;20445;-62
2022/03/31 05:42:51;;;;;;;20.50;11.07;;;4.60;99.90;;;;;;5115230;28;20498;-62
2022/03/31 05:45:18;;;;;;;20.70;12.93;;;4.60;99.90;;;;;;5115051;28;20454;-62
2022/03/31 05:47:45;;;;;;;25.50;12.30;;;4.70;99.80;;;;;;5114438;28;20911;-62
2022/03/31 05:50:13;;;;;;;22.90;11.53;;;4.60;99.10;;;;;;5108541;28;20442;-62
2022/03/31 05:52:42;;;;;;;21.93;12.87;;;4.60;99.90;;;;;;5114610;28;20449;-63
2022/03/31 05:55:10;;;;;;;26.50;12.67;;;4.60;99.90;;;;;;5114851;28;20475;-61
2022/03/31 05:57:38;;;;;;;24.67;12.40;;;4.50;99.90;;;;;;5113731;28;20462;-63
2022/03/31 06:00:06;;;;;;;25.07;12.23;;;4.50;99.90;;;;;;5114364;28;20935;-64
2022/03/31 06:02:33;;;;;;;24.23;13.13;;;4.50;99.90;;;;;;5114839;28;20445;-62
2022/03/31 06:05:00;;;;;;;23.30;12.60;;;4.50;99.90;;;;;;5114363;28;20449;-62
2022/03/31 06:07:26;;;;;;;27.33;13.60;;;4.60;99.90;;;;;;5114207;28;20473;-62
2022/03/31 06:09:53;;;;;;;26.97;13.57;;;4.50;99.90;;;;;;5114254;28;20498;-63
2022/03/31 06:12:20;;;;;;;24.60;12.47;;;4.60;99.90;;;;;;5114399;28;20450;-63
2022/03/31 06:14:48;;;;;;;29.60;13.67;;;4.60;99.90;;;;;;5114544;28;20869;-63
2022/03/31 06:17:14;;;;;;;28.07;13.70;;;4.70;99.90;;;;;;5114349;28;20469;-63
2022/03/31 06:19:41;;;;;;;27.47;14.67;;;4.50;99.90;;;;;;5114395;28;20453;-63
2022/03/31 06:22:08;;;;;;;24.93;14.30;;;4.60;99.90;;;;;;5114348;28;20495;-64
2022/03/31 06:24:35;;;;;;;26.30;14.53;;;4.50;99.90;;;;;;5114880;28;20441;-63
2022/03/31 06:27:02;;;;;;;27.30;13.97;;;4.50;99.90;;;;;;5113532;28;20481;-63
2022/03/31 06:29:30;;;;;;;26.90;14.23;;;4.60;99.90;;;;;;5114010;28;20480;-61
2022/03/31 06:31:58;;;;;;;22.60;13.33;;;4.60;99.90;;;;;;5114235;28;21012;-62
2022/03/31 06:34:25;;;;;;;24.40;13.03;;;4.70;99.90;;;;;;5113761;28;20818;-62
2022/03/31 06:36:52;;;;;;;25.53;13.80;;;4.60;99.90;;;;;;5113795;28;20465;-62
2022/03/31 06:39:18;;;;;;;26.87;14.60;;;4.60;99.90;;;;;;5113604;28;20936;-62
2022/03/31 06:41:45;;;;;;;27.67;13.90;;;4.70;99.90;;;;;;5114082;28;20461;-63
2022/03/31 06:44:13;;;;;;;29.73;15.20;;;4.80;99.90;;;;;;5114140;28;20449;-64
2022/03/31 06:46:40;;;;;;;25.80;13.80;;;4.80;99.90;;;;;;5113288;28;20845;-62
2022/03/31 06:49:08;;;;;;;24.27;13.47;;;4.80;99.90;;;;;;5113900;28;20535;-62
2022/03/31 06:51:35;;;;;;;25.13;13.27;;;4.80;99.90;;;;;;5114109;28;20838;-63
2022/03/31 06:54:03;;;;;;;23.93;13.47;;;4.80;99.90;;;;;;5114262;28;20510;-62
2022/03/31 06:56:30;;;;;;;27.03;13.13;;;4.90;99.90;;;;;;5113403;28;20469;-62
2022/03/31 06:58:57;;;;;;;25.03;12.80;;;4.90;99.90;;;;;;5113799;28;20502;-62
2022/03/31 07:01:25;;;;;;;24.80;12.67;;;4.90;99.90;;;;;;5113579;28;20862;-63
2022/03/31 07:03:52;;;;;;;22.50;12.70;;;4.90;99.90;;;;;;5113630;28;20498;-62
2022/03/31 07:06:21;;;;;;;26.33;13.80;;;4.70;99.90;;;;;;5113188;28;20552;-62
2022/03/31 07:08:48;;;;;;;26.47;13.17;;;4.80;99.90;;;;;;5112960;28;20511;-63
2022/03/31 07:11:15;;;;;;;24.87;14.40;;;4.80;99.90;;;;;;5113460;28;20532;-62
2022/03/31 07:13:43;;;;;;;23.50;14.10;;;4.90;99.90;;;;;;5113282;28;20476;-63
2022/03/31 07:16:10;;;;;;;24.63;13.60;;;5.00;99.90;;;;;;5113078;28;21231;-63
2022/03/31 07:18:37;;;;;;;24.47;14.63;;;5.00;99.90;;;;;;5113264;28;20449;-62
2022/03/31 07:21:03;;;;;;;25.87;14.13;;;4.90;99.90;;;;;;5113009;28;20516;-64
2022/03/31 07:23:31;;;;;;;27.47;14.37;;;5.00;99.90;;;;;;5113790;28;20446;-63
2022/03/31 07:25:58;;;;;;;25.07;13.93;;;4.90;99.90;;;;;;5111667;28;20979;-63
2022/03/31 07:28:25;;;;;;;25.07;14.03;;;4.90;99.90;;;;;;5112695;28;20481;-63
2022/03/31 07:30:53;;;;;;;24.57;14.20;;;4.90;99.90;;;;;;5112559;28;20988;-62
2022/03/31 07:33:21;;;;;;;27.97;14.23;;;4.90;99.90;;;;;;5112991;28;20454;-61
2022/03/31 07:35:48;;;;;;;29.83;14.73;;;4.90;99.90;;;;;;5112978;27;20548;-61
2022/03/31 07:38:16;;;;;;;26.90;14.63;;;5.00;99.90;;;;;;5112287;28;20504;-62
2022/03/31 07:40:44;;;;;;;26.03;13.80;;;5.00;99.90;;;;;;5113028;28;20458;-62
2022/03/31 07:43:12;;;;;;;26.03;13.23;;;5.00;99.90;;;;;;5112617;28;20450;-62
2022/03/31 07:45:39;;;;;;;24.50;13.17;;;4.90;99.90;;;;;;5112585;28;21000;-61
2022/03/31 07:48:09;;;;;;;27.13;13.77;;;4.90;99.90;;;;;;5112214;28;20478;-61
2022/03/31 07:50:37;;;;;;;25.30;14.23;;;4.90;99.90;;;;;;5112790;28;20449;-62
2022/03/31 07:53:03;;;;;;;22.93;13.57;;;5.10;99.90;;;;;;5113294;28;20449;-62
2022/03/31 07:55:30;;;;;;;25.30;14.03;;;5.20;99.90;;;;;;5112092;28;20869;-61
2022/03/31 07:57:58;;;;;;;26.83;13.73;;;5.10;96.00;;;;;;5111651;28;20947;-61
2022/03/31 08:00:25;;;;;;;26.77;14.23;;;5.20;93.70;;;;;;5111509;28;20445;-62
2022/03/31 08:02:53;;;;;;;26.47;14.07;;;5.30;95.40;;;;;;5112229;28;20932;-61
2022/03/31 08:05:21;;;;;;;30.07;14.27;;;5.40;95.60;;;;;;5112153;28;20449;-61
2022/03/31 08:07:48;;;;;;;22.63;13.10;;;5.50;90.40;;;;;;5111640;28;20215;-61
2022/03/31 08:10:15;;;;;;;21.27;12.87;;;5.60;72.80;;;;;;5111847;28;20205;-61
2022/03/31 08:12:44;;;;;;;20.87;12.63;;;5.70;48.80;;;;;;5111900;28;20204;-62
2022/03/31 08:15:15;;;;;;;21.53;12.57;;;5.80;48.90;;;;;;5111978;28;20696;-62
2022/03/31 08:17:42;;;;;;;21.73;12.30;;;5.80;42.60;;;;;;5111634;28;20454;-61
2022/03/31 08:20:10;;;;;;;18.13;11.83;;;5.90;33.80;;;;;;5111929;28;20204;-62
2022/03/31 08:22:37;;;;;;;20.13;11.57;;;5.80;9.50;;;;;;5112111;28;20696;-61
2022/03/31 08:25:04;;;;;;;20.10;12.13;;;5.80;13.20;;;;;;5111780;28;20208;-61
2022/03/31 08:27:32;;;;;;;19.20;12.27;;;5.70;17.10;;;;;;5111236;28;20812;-61
2022/03/31 08:30:00;;;;;;;21.43;12.73;;;5.70;21.90;;;;;;5111296;28;20496;-62
2022/03/31 08:32:28;;;;;;;20.53;11.83;;;5.80;33.80;;;;;;5112067;28;20201;-62
2022/03/31 08:34:54;;;;;;;24.53;12.70;;;6.00;41.20;;;;;;5112248;28;20207;-61
2022/03/31 08:37:23;;;;;;;22.40;13.00;;;6.10;49.20;;;;;;5111690;28;20228;-62
2022/03/31 08:39:50;;;;;;;17.97;10.50;;;6.20;28.60;;;;;;5111573;28;20335;-61
2022/03/31 08:42:17;;;;;;;18.43;11.17;;;6.10;1.00;;;;;;5111354;28;20292;-62
2022/03/31 08:44:43;;;;;;;21.33;11.43;;;5.80;1.00;;;;;;5112137;28;20666;-63
2022/03/31 08:47:10;;;;;;;24.30;11.70;;;5.70;1.00;;;;;;5111430;28;20223;-62
2022/03/31 08:49:39;;;;;;;17.30;11.10;;;5.90;1.00;;;;;;5111351;28;20224;-63
2022/03/31 08:52:06;;;;;;;19.13;11.80;;;6.00;1.00;;;;;;5111723;28;20201;-66
2022/03/31 08:54:33;;;;;;;21.10;11.07;;;5.80;1.00;;;;;;5111336;28;20562;-65
2022/03/31 08:57:00;;;;;;;19.80;11.57;;;5.90;1.00;;;;;;5111397;28;20224;-65
2022/03/31 08:59:27;;;;;;;20.27;12.53;;;6.40;1.00;;;;;;5110821;28;20205;-65
2022/03/31 09:01:53;;;;;;;21.03;12.77;;;6.60;1.00;;;;;;5111716;28;20270;-66
2022/03/31 09:04:21;;;;;;;22.43;12.27;;;6.70;1.00;;;;;;5111126;28;20675;-64
2022/03/31 09:07:01;;;;;;;16.07;10.40;;;6.70;99.90;;;;;;5111375;28;20236;-61
2022/03/31 09:09:28;;;;;;;20.23;11.30;;;6.60;24.30;;;;;;5111282;28;20749;-61
2022/03/31 09:11:55;;;;;;;17.30;10.63;;;6.60;99.90;;;;;;5115554;28;20726;-63
2022/03/31 09:14:30;;;;;;;18.77;12.03;;;6.40;1.00;;;;;;5115733;28;20589;-63
2022/03/31 09:16:57;;;;;;;19.83;12.50;;;6.30;99.90;;;;;;5115293;28;20293;-63
2022/03/31 09:19:24;;;;;;;19.50;12.03;;;6.30;99.90;;;;;;5115048;28;20300;-64
2022/03/31 09:21:53;;;;;;;20.50;12.23;;;6.40;99.90;;;;;;5115129;28;20213;-63
2022/03/31 09:24:20;;;;;;;21.97;12.03;;;6.50;99.90;;;;;;5115753;28;20204;-62
2022/03/31 09:26:49;;;;;;;19.30;12.27;;;6.60;99.90;;;;;;5115235;28;20316;-63
2022/03/31 09:29:19;;;;;;;21.23;14.75;;;6.70;99.90;;;;;;5113407;28;20419;-63
2022/03/31 09:31:46;;;;;;;20.63;11.80;;;6.90;99.90;;;;;;5115448;28;20229;-63
2022/03/31 09:34:15;;;;;;;19.33;11.63;;;7.00;99.90;;;;;;5114727;28;20203;-64
2022/03/31 09:36:44;;;;;;;18.30;11.07;;;6.90;1.00;;;;;;5115233;28;20231;-62
2022/03/31 09:39:16;;;;;;;20.17;11.03;;;6.80;1.00;;;;;;5115024;28;20207;-63
2022/03/31 09:41:46;;;;;;;20.77;11.23;;;6.50;1.00;;;;;;5114605;28;20221;-63
2022/03/31 09:44:16;;;;;;;19.30;10.80;;;6.30;99.90;;;;;;5115119;28;20279;-63
2022/03/31 09:46:44;;;;;;;17.20;10.10;;;6.40;99.90;;;;;;5114064;28;20355;-63
2022/03/31 09:49:15;;;;;;;15.83;9.67;;;6.60;11.10;;;;;;5114824;28;20225;-63
2022/03/31 09:51:42;;;;;;;21.93;13.97;;;6.60;99.90;;;;;;5113416;28;20471;-62
2022/03/31 09:54:09;;;;;;;20.65;13.85;;;6.80;99.90;;;;;;5113769;28;20407;-62
2022/03/31 09:56:40;;;;;;;19.50;12.13;;;6.80;1.00;;;;;;5114325;28;20231;-62
2022/03/31 09:59:12;;;;;;;20.67;11.40;;;6.90;99.90;;;;;;5115798;28;20305;-63
2022/03/31 10:01:40;;;;;;;18.03;11.60;;;6.60;1.00;;;;;;5114355;28;20222;-62
2022/03/31 10:04:09;;;;;;;21.57;11.60;;;6.50;99.90;;;;;;5114384;28;20203;-59
2022/03/31 10:06:37;;;;;;;19.10;10.50;;;6.60;99.90;;;;;;5114396;28;20233;-61
2022/03/31 10:09:04;;;;;;;24.17;11.20;;;6.60;99.90;;;;;;5113816;28;20220;-61
2022/03/31 10:11:33;;;;;;;18.83;11.40;;;6.60;99.90;;;;;;5114546;28;20208;-61
2022/03/31 10:14:25;;;;;;;20.63;11.10;;;6.60;1.00;;;;;;5114255;28;20273;-57
2022/03/31 10:16:55;;;;;;;19.30;10.97;;;6.60;99.90;;;;;;5114235;28;20229;-62
2022/03/31 10:19:29;;;;;;;18.30;11.40;;;6.60;1.00;;;;;;5114131;28;20231;-62
2022/03/31 10:22:01;;;;;;;16.93;10.70;;;6.60;1.00;;;;;;5113069;28;20667;-61
2022/03/31 10:24:42;;;;;;;20.70;11.90;;;6.50;99.90;;;;;;5114426;28;20217;-61
2022/03/31 10:27:10;;;;;;;20.80;11.73;;;6.50;99.90;;;;;;5113749;28;20865;-61
2022/03/31 10:29:44;;;;;;;21.43;11.93;;;6.40;1.00;;;;;;5113778;28;20631;-59
2022/03/31 10:32:19;;;;;;;20.27;11.33;;;6.30;1.00;;;;;;5113786;28;20204;-61
2022/03/31 10:34:48;;;;;;;19.70;11.73;;;6.40;99.90;;;;;;5113867;28;20210;-61
2022/03/31 10:37:17;;;;;;;22.13;11.53;;;6.40;1.00;;;;;;5113830;28;20224;-61
2022/03/31 10:39:55;;;;;;;22.43;12.37;;;6.40;99.90;;;;;;5113285;28;20232;-61
2022/03/31 10:42:22;;;;;;;21.77;12.03;;;6.50;1.00;;;;;;5113632;28;20217;-60
2022/03/31 10:44:50;;;;;;;21.03;11.80;;;6.50;99.90;;;;;;5113304;28;20211;-58
2022/03/31 10:47:18;;;;;;;21.47;11.17;;;6.50;1.00;;;;;;5113733;28;20235;-57
2022/03/31 10:49:53;;;;;;;21.20;11.87;;;6.60;1.00;;;;;;5112199;28;20916;-59
2022/03/31 10:52:23;;;;;;;28.37;13.87;;;6.40;1.00;;;;;;5114204;28;20255;-61
2022/03/31 10:54:50;;;;;;;22.30;11.83;;;6.30;1.00;;;;;;5114456;28;20203;-59
2022/03/31 10:57:18;;;;;;;23.53;13.23;;;6.10;99.90;;;;;;5096821;28;20255;-57
2022/03/31 10:59:47;;;;;;;22.67;13.57;;;6.10;1.00;;;;;;5092793;28;20296;-56
2022/03/31 11:02:17;;;;;;;21.83;12.30;;;6.30;1.00;;;;;;5093135;28;20316;-60
2022/03/31 11:04:45;;;;;;;24.73;13.53;;;6.40;99.50;;;;;;5093191;28;20672;-60
2022/03/31 11:07:15;;;;;;;23.83;12.80;;;6.40;99.90;;;;;;5092566;28;20249;-58
2022/03/31 11:09:43;;;;;;;25.43;13.60;;;6.40;99.90;;;;;;5092801;28;20305;-58
2022/03/31 11:12:20;;;;;;;30.93;14.70;;;6.50;99.90;;;;;;5093044;28;20217;-60
2022/03/31 11:14:54;;;;;;;24.67;13.23;;;6.40;99.90;;;;;;5092986;28;20687;-61
2022/03/31 11:17:22;;;;;;;25.47;14.43;;;6.10;84.60;;;;;;5092519;28;20320;-61
2022/03/31 11:19:49;;;;;;;21.67;12.87;;;6.10;99.90;;;;;;5091790;28;20236;-61
2022/03/31 11:22:19;;;;;;;24.80;13.50;;;6.20;99.90;;;;;;5091999;28;20265;-61
2022/03/31 11:24:46;;;;;;;25.83;14.20;;;6.20;99.90;;;;;;5092622;28;20244;-59
2022/03/31 11:27:13;;;;;;;29.30;19.55;;;6.30;99.90;;;;;;5091581;28;20468;-59
2022/03/31 11:29:39;;;;;;;26.07;16.57;;;6.40;99.90;;;;;;5092307;28;20723;-61
2022/03/31 11:32:06;;;;;;;30.50;17.13;;;6.60;99.90;;;;;;5092422;28;20263;-61
2022/03/31 11:34:35;;;;;;;27.73;18.15;;;6.60;99.90;;;;;;5091297;28;20421;-60
2022/03/31 11:37:02;;;;;;;30.45;19.40;;;6.70;22.50;;;;;;5090366;28;20413;-60
2022/03/31 11:39:30;;;;;;;26.73;15.63;;;6.80;99.90;;;;;;5091893;28;20212;-60
2022/03/31 11:41:58;;;;;;;27.87;15.97;;;6.80;1.00;;;;;;5092147;28;20208;-60
2022/03/31 11:44:26;;;;;;;27.73;15.13;;;6.70;1.00;;;;;;5092434;28;20214;-62
2022/03/31 11:46:53;;;;;;;27.87;16.17;;;6.70;99.90;;;;;;5091472;28;20238;-63
2022/03/31 11:49:23;;;;;;;23.77;13.00;;;6.70;99.90;;;;;;5091591;28;20275;-64
2022/03/31 11:51:54;;;;;;;26.07;14.67;;;6.80;99.90;;;;;;5091760;28;20238;-63
2022/03/31 11:54:22;;;;;;;28.40;15.00;;;6.80;99.90;;;;;;5091825;28;20684;-62
2022/03/31 11:57:02;;;;;;;31.80;15.70;;;6.90;99.90;;;;;;5092013;28;20231;-62
2022/03/31 11:59:29;;;;;;;24.40;15.30;;;6.90;99.90;;;;;;5091255;28;20248;-61
2022/03/31 12:01:56;;;;;;;23.03;14.27;;;6.90;99.90;;;;;;5091424;28;20672;-62
2022/03/31 12:04:24;;;;;;;29.15;18.58;;;7.00;1.00;;;;;;5090444;28;20418;-60
2022/03/31 12:06:55;;;;;;;27.57;16.03;;;7.00;99.90;;;;;;5091193;28;20224;-61
2022/03/31 12:09:24;;;;;;;24.07;14.20;;;6.90;1.00;;;;;;5092122;28;20253;-62
2022/03/31 12:11:51;;;;;;;26.93;15.67;;;6.80;99.90;;;;;;5091284;28;20592;-61
2022/03/31 12:14:17;;;;;;;26.30;15.37;;;6.70;1.00;;;;;;5092019;28;20237;-62
2022/03/31 12:16:46;;;;;;;26.63;14.70;;;6.70;99.90;;;;;;5091241;28;20231;-60
2022/03/31 12:19:13;;;;;;;26.70;15.70;;;6.80;1.00;;;;;;5091548;28;20215;-59
2022/03/31 12:21:46;;;;;;;28.60;17.92;;;7.00;99.90;;;;;;5090038;28;20417;-62
2022/03/31 12:24:15;;;;;;;24.90;14.97;;;7.30;1.00;;;;;;5091667;28;20204;-62
2022/03/31 12:26:54;;;;;;;23.83;14.00;;;7.40;99.90;;;;;;5091202;28;20289;-62
2022/03/31 12:29:21;;;;;;;27.27;18.17;;;7.50;1.00;;;;;;5089486;28;20952;-63
2022/03/31 12:31:48;;;;;;;28.23;15.47;;;7.60;99.90;;;;;;5091389;28;20261;-62
2022/03/31 12:34:15;;;;;;;27.15;17.77;;;7.70;1.00;;;;;;5093431;28;20426;-62
2022/03/31 12:36:43;;;;;;;23.40;13.83;;;7.60;99.90;;;;;;5111134;28;20230;-62
2022/03/31 12:39:11;;;;;;;24.23;14.10;;;7.30;99.90;;;;;;5111850;28;20252;-63
2022/03/31 12:41:40;;;;;;;26.75;17.73;;;7.50;1.00;;;;;;5109931;28;20888;-63
2022/03/31 12:44:09;;;;;;;27.92;18.35;;;7.70;99.90;;;;;;5110445;28;20416;-62
2022/03/31 12:46:38;;;;;;;24.60;14.97;;;7.80;1.00;;;;;;5111167;28;20609;-63